Time;durP1;ratioP1;P1;durP2;ratioP2;P2;SDS_P1;SDS_P2;PMS_P1;PMS_P2;Temp;Humidity;BMP_temperature;BMP_pressure;BME280_temperature;BME280_humidity;BME280_pressure;Samples;Min_cycle;Max_cycle;Signal;HPM_P1;HPM_P2
2023/02/23 00:01:37;;;;;;;13.40;6.38;;;;;;;;;;5026365;28;20488;-66
2023/02/23 00:04:03;;;;;;;15.48;7.50;;;;;;;;;;5047053;28;20039;-66
2023/02/23 00:06:28;;;;;;;15.55;7.00;;;;;;;;;;5026993;28;20029;-66
2023/02/23 00:08:54;;;;;;;13.40;6.85;;;;;;;;;;5036577;28;20082;-65
2023/02/23 00:11:19;;;;;;;15.38;7.32;;;;;;;;;;5045856;28;20644;-65
2023/02/23 00:13:46;;;;;;;16.27;7.47;;;;;;;;;;5032537;28;20374;-66
2023/02/23 00:16:13;;;;;;;16.38;7.53;;;;;;;;;;5037329;28;20429;-65
2023/02/23 00:18:44;;;;;;;;;;;;;;;;;;5046093;28;20516;-66
2023/02/23 00:21:35;;;;;;;14.60;7.43;;;;;;;;;;5033766;28;19921;-65
2023/02/23 00:24:02;;;;;;;15.10;6.75;;;;;;;;;;5039092;28;20102;-65
2023/02/23 00:26:33;;;;;;;14.00;7.18;;;;;;;;;;5039460;28;20021;-65
2023/02/23 00:28:59;;;;;;;16.48;7.38;;;;;;;;;;5029233;28;20030;-65
2023/02/23 00:31:25;;;;;;;15.55;7.22;;;;;;;;;;5033273;28;20025;-65
2023/02/23 00:33:53;;;;;;;15.27;7.25;;;;;;;;;;5038997;28;20021;-65
2023/02/23 00:36:18;;;;;;;17.15;7.05;;;;;;;;;;5044335;28;20095;-65
2023/02/23 00:38:44;;;;;;;15.95;7.30;;;;;;;;;;5037169;28;20025;-64
2023/02/23 00:41:12;;;;;;;15.02;6.95;;;;;;;;;;5043347;28;20072;-65
2023/02/23 00:43:38;;;;;;;14.10;6.78;;;;;;;;;;5034212;28;20046;-65
2023/02/23 00:46:04;;;;;;;13.13;6.75;;;;;;;;;;5034119;28;20076;-65
2023/02/23 00:48:30;;;;;;;16.20;7.18;;;;;;;;;;5035786;28;20029;-67
2023/02/23 00:50:59;;;;;;;14.10;7.13;;;;;;;;;;5043188;28;20028;-66
2023/02/23 00:53:26;;;;;;;13.73;7.00;;;;;;;;;;5040225;28;20028;-66
2023/02/23 00:55:51;;;;;;;;;;;;;;;;;;5037022;28;20033;-66
2023/02/23 00:58:16;;;;;;;16.48;7.18;;;;;;;;;;5049332;28;19934;-66
2023/02/23 01:00:41;;;;;;;13.40;6.60;;;;;;;;;;5043828;28;20021;-66
2023/02/23 01:03:06;;;;;;;16.33;7.67;;;;;;;;;;5045492;28;20033;-66
2023/02/23 01:05:33;;;;;;;16.13;7.50;;;;;;;;;;5051828;28;20036;-65
2023/02/23 01:07:58;;;;;;;16.58;7.57;;;;;;;;;;5032563;28;20100;-66
2023/02/23 01:10:23;;;;;;;17.23;7.95;;;;;;;;;;5032812;28;20609;-64
2023/02/23 01:12:49;;;;;;;15.30;7.75;;;;;;;;;;5044864;28;20029;-64
2023/02/23 01:15:16;;;;;;;15.35;7.72;;;;;;;;;;5040028;28;20162;-65
2023/02/23 01:17:41;;;;;;;14.90;7.28;;;;;;;;;;5036901;28;20025;-65
2023/02/23 01:20:14;;;;;;;16.23;7.95;;;;;;;;;;5044756;28;20501;-64
2023/02/23 01:22:41;;;;;;;16.02;7.38;;;;;;;;;;5039951;28;20028;-64
2023/02/23 01:25:06;;;;;;;17.42;7.97;;;;;;;;;;5036894;28;20025;-66
2023/02/23 01:27:32;;;;;;;16.58;8.23;;;;;;;;;;5043723;28;20029;-67
2023/02/23 01:29:57;;;;;;;14.82;7.57;;;;;;;;;;5048299;28;20028;-67
2023/02/23 01:32:23;;;;;;;15.60;7.80;;;;;;;;;;5042265;28;20115;-64
2023/02/23 01:34:48;;;;;;;16.40;8.75;;;;;;;;;;5050533;28;20388;-65
2023/02/23 01:37:13;;;;;;;15.68;7.68;;;;;;;;;;5041914;28;20025;-66
2023/02/23 01:39:38;;;;;;;16.05;8.00;;;;;;;;;;5030800;28;20042;-69
2023/02/23 01:42:05;;;;;;;16.88;8.15;;;;;;;;;;5043301;28;20484;-66
2023/02/23 01:44:30;;;;;;;16.48;7.45;;;;;;;;;;5035097;28;20033;-66
2023/02/23 01:46:55;;;;;;;18.77;8.68;;;;;;;;;;5042717;28;20032;-66
2023/02/23 01:49:26;;;;;;;17.13;8.50;;;;;;;;;;5037353;28;20079;-66
2023/02/23 01:51:54;;;;;;;17.35;8.70;;;;;;;;;;5045033;28;20029;-66
2023/02/23 01:54:27;;;;;;;17.27;8.20;;;;;;;;;;5040136;28;20021;-66
2023/02/23 01:56:57;;;;;;;19.10;9.05;;;;;;;;;;5031002;28;20041;-66
2023/02/23 01:59:27;;;;;;;17.95;8.25;;;;;;;;;;5035808;28;20017;-66
2023/02/23 02:01:52;;;;;;;17.02;8.23;;;;;;;;;;5030523;28;20477;-66
2023/02/23 02:04:18;;;;;;;19.93;9.10;;;;;;;;;;5048667;28;20040;-66
2023/02/23 02:06:44;;;;;;;18.75;8.90;;;;;;;;;;5051611;28;20028;-64
2023/02/23 02:09:15;;;;;;;18.50;8.55;;;;;;;;;;5041423;28;20028;-64
2023/02/23 02:11:43;;;;;;;17.83;8.10;;;;;;;;;;5029670;28;20037;-66
2023/02/23 02:14:11;;;;;;;15.40;7.80;;;;;;;;;;5031703;28;20040;-65
2023/02/23 02:16:41;;;;;;;20.35;8.43;;;;;;;;;;5032453;28;20528;-66
2023/02/23 02:19:29;;;;;;;18.70;9.45;;;;;;;;;;5032385;28;20504;-65
2023/02/23 02:22:13;;;;;;;16.75;8.45;;;;;;;;;;5031199;28;20500;-64
2023/02/23 02:24:38;;;;;;;;;;;;;;;;;;5019322;28;20156;-65
2023/02/23 02:27:20;;;;;;;18.55;8.57;;;;;;;;;;5031754;28;19979;-64
2023/02/23 02:29:57;;;;;;;15.93;8.15;;;;;;;;;;5032152;28;20014;-64
2023/02/23 02:32:38;;;;;;;16.55;7.90;;;;;;;;;;5031624;28;20532;-65
2023/02/23 02:35:10;;;;;;;17.58;8.52;;;;;;;;;;5031307;28;20030;-65
2023/02/23 02:37:41;;;;;;;17.67;8.43;;;;;;;;;;5030952;28;20018;-64
2023/02/23 02:40:15;;;;;;;17.73;8.63;;;;;;;;;;5031096;28;20057;-66
2023/02/23 02:42:50;;;;;;;18.40;8.40;;;;;;;;;;5031254;28;20434;-65
2023/02/23 02:45:21;;;;;;;18.42;8.70;;;;;;;;;;5030814;28;20036;-67
2023/02/23 02:48:00;;;;;;;16.45;8.15;;;;;;;;;;5031344;28;20025;-66
2023/02/23 02:50:35;;;;;;;17.48;8.90;;;;;;;;;;5030144;28;20432;-65
2023/02/23 02:53:02;;;;;;;17.33;7.90;;;;;;;;;;5029047;28;20025;-65
2023/02/23 02:55:33;;;;;;;18.48;8.20;;;;;;;;;;5025654;28;20040;-65
2023/02/23 02:58:01;;;;;;;18.00;8.27;;;;;;;;;;5029577;28;20393;-65
2023/02/23 04:18:49;;;;;;;19.95;8.52;;;;;;;;;;5033239;28;20017;-65
2023/02/23 04:21:14;;;;;;;22.63;9.00;;;;;;;;;;5030991;28;20112;-65
2023/02/23 04:23:40;;;;;;;17.40;8.35;;;;;;;;;;5019539;28;20053;-64
2023/02/23 04:26:05;;;;;;;17.77;9.05;;;;;;;;;;5023864;28;20395;-64
2023/02/23 04:28:30;;;;;;;18.88;7.78;;;;;;;;;;5029533;28;20032;-64
2023/02/23 04:30:55;;;;;;;18.03;9.03;;;;;;;;;;5036914;28;20083;-64
2023/02/23 04:33:21;;;;;;;17.33;9.32;;;;;;;;;;5029471;28;20026;-65
2023/02/23 04:35:46;;;;;;;17.52;8.82;;;;;;;;;;5034757;28;20087;-66
2023/02/23 04:38:11;;;;;;;16.87;8.60;;;;;;;;;;5028800;28;20025;-66
2023/02/23 04:40:36;;;;;;;20.50;9.48;;;;;;;;;;5029621;28;20405;-64
2023/02/23 04:43:01;;;;;;;19.02;9.75;;;;;;;;;;5029264;28;22327;-65
2023/02/23 04:45:27;;;;;;;19.52;9.65;;;;;;;;;;5027883;28;20033;-65
2023/02/23 04:47:52;;;;;;;17.83;9.25;;;;;;;;;;5029331;28;20026;-64
2023/02/23 04:50:18;;;;;;;18.77;9.30;;;;;;;;;;5036658;28;20024;-64
2023/02/23 04:52:43;;;;;;;18.05;9.13;;;;;;;;;;5028845;28;20029;-65
2023/02/23 04:55:14;;;;;;;19.57;9.53;;;;;;;;;;5029015;28;20025;-65
2023/02/23 04:57:39;;;;;;;18.58;8.68;;;;;;;;;;5032866;28;20099;-64
2023/02/23 05:00:04;;;;;;;18.60;8.97;;;;;;;;;;5033470;28;20025;-65
2023/02/23 05:02:30;;;;;;;17.48;9.00;;;;;;;;;;5031736;28;20539;-64
2023/02/23 05:04:56;;;;;;;18.08;9.50;;;;;;;;;;5032927;28;20021;-65
2023/02/23 05:07:21;;;;;;;19.83;9.38;;;;;;;;;;5032455;28;20101;-64
2023/02/23 05:09:46;;;;;;;20.63;9.68;;;;;;;;;;5032663;28;20022;-67
2023/02/23 05:12:12;;;;;;;18.52;9.55;;;;;;;;;;5032789;28;20033;-63
2023/02/23 05:14:37;;;;;;;18.20;9.20;;;;;;;;;;5032305;28;20045;-64
2023/02/23 05:17:02;;;;;;;17.88;8.75;;;;;;;;;;5032908;28;20037;-66
2023/02/23 05:19:27;;;;;;;20.40;10.43;;;;;;;;;;5032926;28;20010;-64
2023/02/23 05:21:53;;;;;;;19.42;10.15;;;;;;;;;;5031582;28;20032;-65
2023/02/23 05:24:18;;;;;;;24.13;10.40;;;;;;;;;;5024773;28;20123;-65
2023/02/23 05:26:44;;;;;;;19.60;9.45;;;;;;;;;;5029337;28;20026;-67
2023/02/23 05:29:09;;;;;;;20.63;10.02;;;;;;;;;;5032536;28;20048;-66
2023/02/23 05:31:34;;;;;;;20.00;9.33;;;;;;;;;;5032453;28;20496;-65
2023/02/23 05:33:59;;;;;;;18.17;9.18;;;;;;;;;;5031824;28;20440;-66
2023/02/23 05:36:24;;;;;;;19.33;9.23;;;;;;;;;;5032057;28;20124;-66
2023/02/23 05:38:49;;;;;;;21.27;9.33;;;;;;;;;;5032362;28;20049;-66
2023/02/23 05:41:16;;;;;;;20.27;9.35;;;;;;;;;;5030782;28;20040;-66
2023/02/23 05:43:41;;;;;;;21.13;9.90;;;;;;;;;;5032186;28;20032;-66
2023/02/23 05:46:10;;;;;;;20.33;9.83;;;;;;;;;;5031538;28;20021;-67
2023/02/23 05:48:36;;;;;;;22.02;10.52;;;;;;;;;;5032062;28;20434;-67
2023/02/23 05:51:02;;;;;;;20.42;9.32;;;;;;;;;;5032061;28;20104;-66
2023/02/23 05:53:27;;;;;;;20.58;9.60;;;;;;;;;;5034938;28;20024;-67
2023/02/23 05:55:52;;;;;;;18.50;8.97;;;;;;;;;;5043011;28;20055;-66
2023/02/23 05:58:17;;;;;;;19.80;9.45;;;;;;;;;;5029017;28;20032;-66
2023/02/23 06:00:43;;;;;;;22.13;9.57;;;;;;;;;;5028641;28;20026;-66
2023/02/23 06:03:08;;;;;;;20.55;9.93;;;;;;;;;;5028362;28;20103;-66
2023/02/23 06:05:33;;;;;;;19.98;9.30;;;;;;;;;;5031612;28;20025;-66
2023/02/23 06:07:58;;;;;;;20.10;10.40;;;;;;;;;;5032061;28;20473;-66
2023/02/23 06:10:23;;;;;;;21.83;10.53;;;;;;;;;;5032164;28;20052;-66
2023/02/23 06:12:48;;;;;;;22.88;10.00;;;;;;;;;;5027545;28;20025;-66
2023/02/23 06:15:13;;;;;;;21.33;11.10;;;;;;;;;;5029143;28;20017;-66
2023/02/23 06:17:39;;;;;;;21.50;10.90;;;;;;;;;;5027594;28;20029;-67
2023/02/23 06:20:05;;;;;;;21.73;11.23;;;;;;;;;;5028092;28;21474;-67
2023/02/23 06:22:30;;;;;;;;;;;;;;;;;;5026722;28;20036;-66
2023/02/23 06:24:56;;;;;;;21.48;9.95;;;;;;;;;;5024277;28;19921;-65
2023/02/23 06:27:21;;;;;;;22.15;10.35;;;;;;;;;;5027289;28;20028;-67
2023/02/23 06:29:46;;;;;;;21.80;10.00;;;;;;;;;;5022761;28;20029;-67
2023/02/23 06:32:11;;;;;;;22.20;10.68;;;;;;;;;;5035814;28;20079;-67
2023/02/23 06:34:37;;;;;;;23.48;11.75;;;;;;;;;;5032495;28;20197;-67
2023/02/23 06:37:02;;;;;;;25.02;10.98;;;;;;;;;;5024203;28;20044;-67
2023/02/23 06:39:27;;;;;;;21.50;11.27;;;;;;;;;;5029399;28;20029;-64
2023/02/23 06:41:52;;;;;;;25.42;11.48;;;;;;;;;;5028476;28;20025;-67
2023/02/23 06:44:17;;;;;;;24.60;11.35;;;;;;;;;;5025637;28;20033;-66
2023/02/23 06:46:42;;;;;;;24.17;10.88;;;;;;;;;;5033078;28;20164;-64
2023/02/23 06:49:09;;;;;;;21.20;10.77;;;;;;;;;;5030971;28;20052;-67
2023/02/23 06:51:35;;;;;;;22.23;10.10;;;;;;;;;;5026859;28;20037;-66
2023/02/23 06:54:00;;;;;;;22.33;10.75;;;;;;;;;;5025333;28;20045;-65
2023/02/23 06:56:25;;;;;;;22.38;11.32;;;;;;;;;;5027115;28;20030;-66
2023/02/23 06:58:50;;;;;;;21.88;10.65;;;;;;;;;;5027452;28;20487;-67
2023/02/23 07:01:15;;;;;;;21.73;11.35;;;;;;;;;;5026732;28;20032;-65
2023/02/23 07:03:41;;;;;;;24.58;11.40;;;;;;;;;;5027437;28;20056;-66
2023/02/23 07:06:06;;;;;;;22.20;10.82;;;;;;;;;;5020691;28;20030;-66
2023/02/23 07:08:32;;;;;;;22.02;10.93;;;;;;;;;;5034498;28;20034;-67
2023/02/23 07:11:04;;;;;;;21.75;10.32;;;;;;;;;;5027378;28;20018;-65
2023/02/23 07:13:29;;;;;;;25.48;11.13;;;;;;;;;;5021422;28;20083;-65
2023/02/23 07:15:56;;;;;;;27.35;12.20;;;;;;;;;;5026567;28;20037;-65
2023/02/23 07:18:21;;;;;;;24.48;12.23;;;;;;;;;;5028276;28;20029;-66
2023/02/23 07:20:46;;;;;;;23.10;11.00;;;;;;;;;;5029190;28;20033;-65
2023/02/23 07:23:11;;;;;;;25.05;12.27;;;;;;;;;;5032476;28;20132;-65
2023/02/23 07:25:36;;;;;;;27.52;11.57;;;;;;;;;;5036290;28;20695;-65
2023/02/23 07:28:01;;;;;;;25.15;12.02;;;;;;;;;;5038102;28;20098;-65
2023/02/23 07:30:27;;;;;;;24.05;11.73;;;;;;;;;;5033855;28;20021;-66
2023/02/23 07:32:52;;;;;;;24.73;12.27;;;;;;;;;;5037181;28;20736;-65
2023/02/23 07:35:18;;;;;;;21.95;11.00;;;;;;;;;;5027670;28;20025;-71
2023/02/23 07:37:43;;;;;;;24.13;12.25;;;;;;;;;;5026497;28;20022;-67
2023/02/23 07:40:09;;;;;;;22.43;11.40;;;;;;;;;;5033734;28;20532;-65
2023/02/23 07:42:34;;;;;;;26.20;12.88;;;;;;;;;;5045584;28;20550;-66
2023/02/23 07:44:59;;;;;;;24.83;12.23;;;;;;;;;;5038327;28;20028;-66
2023/02/23 07:47:29;;;;;;;25.13;12.20;;;;;;;;;;5029610;28;20021;-65
2023/02/23 07:49:55;;;;;;;24.08;11.85;;;;;;;;;;5037769;28;20489;-67
2023/02/23 07:52:20;;;;;;;22.58;12.30;;;;;;;;;;5048053;28;20027;-67
2023/02/23 07:54:45;;;;;;;21.50;11.63;;;;;;;;;;5049576;28;20027;-65
2023/02/23 07:57:11;;;;;;;22.40;11.70;;;;;;;;;;5050244;28;20032;-68
2023/02/23 07:59:37;;;;;;;25.13;13.38;;;;;;;;;;5050204;28;20021;-65
2023/02/23 08:02:03;;;;;;;22.60;11.60;;;;;;;;;;5042240;28;20048;-65
2023/02/23 08:04:28;;;;;;;25.92;12.00;;;;;;;;;;5029189;28;20040;-67
2023/02/23 08:06:54;;;;;;;22.77;12.02;;;;;;;;;;5030396;28;20099;-67
2023/02/23 08:09:19;;;;;;;22.38;11.07;;;;;;;;;;5030228;28;20048;-66
2023/02/23 08:11:44;;;;;;;22.00;11.43;;;;;;;;;;5030157;28;20369;-67
2023/02/23 08:14:09;;;;;;;23.98;12.30;;;;;;;;;;5029393;28;20033;-66
2023/02/23 08:16:34;;;;;;;25.83;12.10;;;;;;;;;;5030030;28;20060;-67
2023/02/23 08:18:59;;;;;;;23.53;12.40;;;;;;;;;;5028073;28;20037;-66
2023/02/23 08:21:26;;;;;;;24.10;12.97;;;;;;;;;;5029325;28;20014;-67
2023/02/23 08:23:51;;;;;;;22.63;11.20;;;;;;;;;;5031796;28;20108;-65
2023/02/23 08:26:16;;;;;;;25.40;13.07;;;;;;;;;;5031403;28;20049;-65
2023/02/23 08:28:44;;;;;;;21.67;11.38;;;;;;;;;;5031966;28;20025;-64
2023/02/23 08:31:10;;;;;;;21.50;11.45;;;;;;;;;;5023469;28;20392;-64
2023/02/23 08:33:36;;;;;;;20.13;10.88;;;;;;;;;;5033708;28;20025;-65
2023/02/23 08:36:02;;;;;;;19.17;10.48;;;;;;;;;;5033293;28;20032;-66
2023/02/23 08:38:27;;;;;;;21.63;10.30;;;;;;;;;;5034175;28;20021;-65
2023/02/23 08:40:53;;;;;;;21.05;11.05;;;;;;;;;;5033990;28;20415;-65
2023/02/23 08:43:18;;;;;;;20.20;11.20;;;;;;;;;;5033298;28;20026;-65
2023/02/23 08:45:43;;;;;;;19.80;10.20;;;;;;;;;;5032274;28;20030;-65
2023/02/23 08:48:08;;;;;;;18.95;10.65;;;;;;;;;;5034426;28;20208;-65
2023/02/23 08:50:33;;;;;;;19.90;10.60;;;;;;;;;;5034406;28;20072;-65
2023/02/23 08:52:59;;;;;;;22.80;11.38;;;;;;;;;;5030203;28;20011;-64
2023/02/23 08:55:24;;;;;;;21.47;11.37;;;;;;;;;;5027306;28;20045;-65
2023/02/23 08:57:49;;;;;;;22.70;11.32;;;;;;;;;;5030120;28;20040;-67
2023/02/23 09:00:15;;;;;;;20.93;11.57;;;;;;;;;;5032706;28;20420;-65
2023/02/23 09:02:41;;;;;;;20.13;10.45;;;;;;;;;;5031487;28;20056;-66
2023/02/23 09:05:06;;;;;;;23.00;10.02;;;;;;;;;;5032673;28;20060;-65
2023/02/23 09:07:31;;;;;;;21.17;10.95;;;;;;;;;;5033220;28;20492;-65
2023/02/23 09:09:57;;;;;;;18.88;10.13;;;;;;;;;;5033394;28;20025;-67
2023/02/23 09:12:22;;;;;;;20.92;10.95;;;;;;;;;;5033123;28;20017;-65
2023/02/23 09:14:47;;;;;;;21.38;10.10;;;;;;;;;;5031769;28;20029;-65
2023/02/23 09:17:12;;;;;;;18.00;9.87;;;;;;;;;;5040983;28;20030;-65
2023/02/23 09:19:38;;;;;;;18.13;10.43;;;;;;;;;;5038494;28;20467;-65
2023/02/23 09:22:03;;;;;;;17.63;9.17;;;;;;;;;;5033698;28;20051;-65
2023/02/23 09:24:28;;;;;;;19.13;10.20;;;;;;;;;;5032505;28;20478;-65
2023/02/23 09:26:53;;;;;;;20.45;10.40;;;;;;;;;;5033047;28;20017;-65
2023/02/23 09:29:18;;;;;;;20.37;10.67;;;;;;;;;;5017047;28;20034;-65
2023/02/23 09:31:43;;;;;;;19.08;10.18;;;;;;;;;;5023492;28;20486;-66
2023/02/23 09:34:09;;;;;;;19.25;10.55;;;;;;;;;;5031428;28;20416;-65
2023/02/23 09:36:34;;;;;;;20.25;10.93;;;;;;;;;;5032451;28;20022;-66
2023/02/23 09:39:00;;;;;;;19.58;10.38;;;;;;;;;;5031880;28;20404;-65
2023/02/23 09:41:26;;;;;;;21.05;9.98;;;;;;;;;;5032817;28;20034;-66
2023/02/23 09:43:57;;;;;;;21.73;11.00;;;;;;;;;;5032511;28;20389;-66
2023/02/23 09:46:49;;;;;;;20.17;10.07;;;;;;;;;;5031382;28;20029;-66
2023/02/23 09:49:16;;;;;;;18.70;10.30;;;;;;;;;;5030086;28;20128;-65
2023/02/23 09:51:46;;;;;;;18.88;10.00;;;;;;;;;;5032033;28;20022;-67
2023/02/23 09:54:11;;;;;;;20.70;10.30;;;;;;;;;;5011941;28;20102;-65
2023/02/23 09:56:42;;;;;;;18.50;11.00;;;;;;;;;;5026891;28;20531;-65
2023/02/23 09:59:12;;;;;;;18.38;10.00;;;;;;;;;;5032445;28;20029;-66
2023/02/23 10:01:40;;;;;;;20.48;10.38;;;;;;;;;;5031895;28;20021;-65
2023/02/23 10:04:19;;;;;;;20.65;10.32;;;;;;;;;;5028716;28;20449;-66
2023/02/23 10:06:48;;;;;;;20.20;10.93;;;;;;;;;;5032184;28;20184;-64
2023/02/23 10:09:23;;;;;;;19.17;10.32;;;;;;;;;;5032472;28;20022;-65
2023/02/23 10:12:08;;;;;;;17.83;10.20;;;;;;;;;;5032486;28;20029;-67
2023/02/23 10:14:52;;;;;;;20.00;10.77;;;;;;;;;;5030870;28;20109;-67
2023/02/23 10:17:17;;;;;;;;;;;;;;;;;;5032785;28;20422;-63
2023/02/23 10:19:46;;;;;;;20.23;10.18;;;;;;;;;;5032210;28;20367;-66
2023/02/23 10:22:13;;;;;;;19.00;10.23;;;;;;;;;;5032435;28;20083;-66
2023/02/23 10:24:41;;;;;;;18.67;10.13;;;;;;;;;;5031448;28;20026;-66
2023/02/23 10:27:14;;;;;;;18.45;10.07;;;;;;;;;;5030718;28;20389;-66
2023/02/23 10:29:50;;;;;;;18.75;10.05;;;;;;;;;;5031591;28;20056;-67
2023/02/23 10:32:34;;;;;;;19.55;9.95;;;;;;;;;;5026830;28;20037;-66
2023/02/23 10:35:00;;;;;;;18.45;9.48;;;;;;;;;;5031210;28;20044;-66
2023/02/23 10:37:25;;;;;;;17.75;9.50;;;;;;;;;;5032497;28;20029;-66
2023/02/23 10:39:51;;;;;;;14.77;8.97;;;;;;;;;;5031716;28;20544;-66
2023/02/23 10:42:19;;;;;;;16.45;9.48;;;;;;;;;;5030322;28;20051;-66
2023/02/23 10:44:45;;;;;;;15.07;8.90;;;;;;;;;;5030690;28;20104;-66
2023/02/23 10:47:13;;;;;;;15.80;10.43;;;;;;;;;;5031780;28;20476;-66
2023/02/23 10:49:41;;;;;;;16.35;8.93;;;;;;;;;;5031239;28;20631;-66
2023/02/23 10:52:12;;;;;;;16.95;9.82;;;;;;;;;;5031224;28;20024;-66
2023/02/23 10:54:46;;;;;;;16.27;9.00;;;;;;;;;;5027476;28;20501;-66
2023/02/23 10:57:17;;;;;;;16.90;9.05;;;;;;;;;;5031580;28;20037;-66
2023/02/23 10:59:56;;;;;;;17.75;9.98;;;;;;;;;;5031604;28;20025;-67
2023/02/23 11:02:23;;;;;;;15.80;9.50;;;;;;;;;;5031143;28;20362;-67
2023/02/23 11:04:51;;;;;;;15.45;8.73;;;;;;;;;;5028788;28;20033;-66
2023/02/23 11:07:18;;;;;;;16.00;9.48;;;;;;;;;;5031292;28;20043;-66
2023/02/23 11:09:43;;;;;;;15.88;8.75;;;;;;;;;;5031464;28;20075;-66
2023/02/23 11:12:43;;;;;;;16.60;9.43;;;;;;;;;;5032251;28;20401;-66
2023/02/23 11:15:23;;;;;;;15.75;8.48;;;;;;;;;;5022110;28;20648;-66
2023/02/23 11:17:56;;;;;;;16.45;8.20;;;;;;;;;;5033299;28;20073;-66
2023/02/23 11:20:28;;;;;;;15.23;8.68;;;;;;;;;;5037952;28;20064;-66
2023/02/23 11:22:55;;;;;;;15.20;8.02;;;;;;;;;;5034234;28;20013;-66
2023/02/23 11:25:24;;;;;;;17.17;8.63;;;;;;;;;;5030661;28;20029;-65
2023/02/23 11:27:55;;;;;;;16.45;8.10;;;;;;;;;;5030670;28;20017;-66
2023/02/23 11:30:23;;;;;;;15.90;8.60;;;;;;;;;;5030332;28;20497;-66
2023/02/23 11:32:50;;;;;;;15.52;8.60;;;;;;;;;;5021472;28;20029;-66
2023/02/23 11:35:15;;;;;;;16.33;8.65;;;;;;;;;;5030206;28;20040;-66
2023/02/23 11:37:40;;;;;;;18.35;9.10;;;;;;;;;;5030688;28;20025;-66
2023/02/23 11:40:33;;;;;;;13.17;7.63;;;;;;;;;;5017923;28;20568;-66
2023/02/23 11:43:06;;;;;;;15.30;8.82;;;;;;;;;;5009614;28;20110;-66
2023/02/23 11:45:32;;;;;;;;;;;;;;;;;;5011611;28;20041;-67
2023/02/23 11:47:59;;;;;;;13.25;7.57;;;;;;;;;;5030043;28;19971;-66
2023/02/23 11:50:24;;;;;;;;;;;;;;;;;;5030415;28;20082;-65
2023/02/23 11:52:55;;;;;;;15.52;8.38;;;;;;;;;;5030012;28;19908;-65
2023/02/23 11:55:20;;;;;;;15.98;8.27;;;;;;;;;;5029766;28;20109;-65
2023/02/23 11:57:48;;;;;;;15.33;8.07;;;;;;;;;;5030082;28;20108;-65
2023/02/23 12:00:21;;;;;;;14.75;7.82;;;;;;;;;;5028358;28;20615;-65
2023/02/23 12:02:50;;;;;;;15.55;8.30;;;;;;;;;;5033553;28;20544;-65
2023/02/23 12:05:18;;;;;;;16.85;8.30;;;;;;;;;;5038957;28;20033;-65
2023/02/23 12:07:53;;;;;;;15.52;7.70;;;;;;;;;;5030781;28;20017;-65
2023/02/23 12:10:25;;;;;;;15.50;8.48;;;;;;;;;;5030324;28;20042;-66
2023/02/23 12:12:50;;;;;;;17.02;8.30;;;;;;;;;;5029969;28;20596;-66
2023/02/23 12:15:22;;;;;;;14.38;7.75;;;;;;;;;;5028291;28;20025;-66
2023/02/23 12:17:49;;;;;;;14.90;8.10;;;;;;;;;;5029996;28;20030;-65
2023/02/23 12:20:19;;;;;;;15.15;8.32;;;;;;;;;;5030352;28;20021;-65
2023/02/23 12:22:47;;;;;;;14.27;7.93;;;;;;;;;;5030432;28;20101;-66
2023/02/23 12:25:22;;;;;;;15.75;8.15;;;;;;;;;;5029225;28;20477;-65
2023/02/23 12:27:52;;;;;;;13.73;8.15;;;;;;;;;;5029711;28;20122;-64
2023/02/23 12:30:20;;;;;;;16.45;7.97;;;;;;;;;;5025794;28;20018;-65
2023/02/23 12:32:53;;;;;;;14.40;7.20;;;;;;;;;;5018777;28;20052;-65
2023/02/23 12:35:28;;;;;;;15.43;8.45;;;;;;;;;;5025400;28;20028;-66
2023/02/23 12:38:08;;;;;;;13.52;7.10;;;;;;;;;;5030315;28;20052;-66
2023/02/23 12:40:36;;;;;;;16.38;8.50;;;;;;;;;;5030049;28;20030;-65
2023/02/23 12:43:04;;;;;;;15.43;8.77;;;;;;;;;;5029016;28;20025;-66
2023/02/23 12:45:34;;;;;;;13.18;7.32;;;;;;;;;;5032511;28;20080;-64
2023/02/23 12:48:00;;;;;;;15.80;7.93;;;;;;;;;;5055291;28;20532;-66
2023/02/23 12:50:27;;;;;;;13.77;7.33;;;;;;;;;;5049661;28;20113;-64
2023/02/23 12:52:55;;;;;;;14.02;8.05;;;;;;;;;;5028431;28;20009;-64
2023/02/23 12:55:23;;;;;;;16.02;7.47;;;;;;;;;;5028365;28;20631;-66
2023/02/23 12:57:56;;;;;;;14.73;8.30;;;;;;;;;;5029419;28;20527;-66
2023/02/23 13:00:31;;;;;;;15.82;8.73;;;;;;;;;;5030551;28;20040;-66
2023/02/23 13:03:12;;;;;;;17.10;8.57;;;;;;;;;;5027363;28;20516;-64
2023/02/23 13:05:40;;;;;;;15.07;8.32;;;;;;;;;;5019014;28;20041;-65
2023/02/23 13:08:19;;;;;;;14.02;8.00;;;;;;;;;;5028528;28;20107;-65
2023/02/23 13:10:54;;;;;;;16.75;8.52;;;;;;;;;;5029556;28;20038;-64
2023/02/23 13:13:27;;;;;;;14.68;8.10;;;;;;;;;;5033103;28;20059;-65
2023/02/23 13:16:00;;;;;;;13.80;6.88;;;;;;;;;;5032792;28;20056;-64
2023/02/23 13:18:43;;;;;;;13.98;7.47;;;;;;;;;;5033046;28;20035;-64
2023/02/23 13:21:13;;;;;;;14.90;8.18;;;;;;;;;;5033293;28;20035;-64
2023/02/23 13:23:57;;;;;;;13.88;7.65;;;;;;;;;;5032351;28;20078;-64
2023/02/23 13:26:28;;;;;;;15.93;7.72;;;;;;;;;;5031991;28;20022;-67
2023/02/23 13:28:57;;;;;;;12.45;6.95;;;;;;;;;;5033182;28;20079;-65
2023/02/23 13:31:24;;;;;;;14.90;7.72;;;;;;;;;;5033180;28;20049;-65
2023/02/23 13:33:50;;;;;;;15.98;7.78;;;;;;;;;;5018871;28;20037;-66
2023/02/23 13:36:16;;;;;;;18.00;8.57;;;;;;;;;;5025914;28;20053;-65
2023/02/23 13:39:10;;;;;;;14.98;7.95;;;;;;;;;;5032641;28;20029;-64
2023/02/23 13:41:40;;;;;;;13.80;8.15;;;;;;;;;;5023598;28;20053;-65
2023/02/23 13:44:25;;;;;;;16.83;8.30;;;;;;;;;;5032702;28;20029;-64
2023/02/23 13:47:05;;;;;;;15.23;7.82;;;;;;;;;;5016012;28;20506;-64
2023/02/23 13:49:36;;;;;;;13.23;7.00;;;;;;;;;;5013030;28;20071;-65
2023/02/23 13:52:12;;;;;;;13.85;7.70;;;;;;;;;;5018413;28;20477;-66
2023/02/23 13:54:50;;;;;;;14.85;7.88;;;;;;;;;;5025082;28;20029;-65
2023/02/23 13:57:16;;;;;;;14.15;8.05;;;;;;;;;;5032253;28;20033;-64
2023/02/23 13:59:42;;;;;;;13.95;6.63;;;;;;;;;;5032662;28;20024;-64
2023/02/23 14:02:27;;;;;;;13.70;7.65;;;;;;;;;;5032457;28;20657;-65
2023/02/23 14:04:55;;;;;;;13.77;7.03;;;;;;;;;;5032226;28;20107;-65
2023/02/23 14:07:24;;;;;;;12.63;6.95;;;;;;;;;;5031365;28;20024;-65
2023/02/23 14:09:53;;;;;;;12.07;6.78;;;;;;;;;;5033047;28;20025;-65
2023/02/23 14:12:23;;;;;;;15.40;7.80;;;;;;;;;;5032933;28;20018;-65
2023/02/23 14:14:48;;;;;;;14.90;7.45;;;;;;;;;;5031996;28;20037;-65
2023/02/23 14:17:13;;;;;;;16.27;7.28;;;;;;;;;;5032392;28;20017;-65
2023/02/23 14:19:40;;;;;;;14.57;8.00;;;;;;;;;;5032692;28;20121;-65
2023/02/23 14:22:11;;;;;;;13.48;7.22;;;;;;;;;;5032337;28;20512;-65
2023/02/23 14:24:36;;;;;;;14.55;7.65;;;;;;;;;;5031182;28;20036;-64
2023/02/23 14:27:16;;;;;;;12.67;6.90;;;;;;;;;;5031449;28;20096;-65
2023/02/23 14:29:42;;;;;;;13.95;7.57;;;;;;;;;;5023411;28;20053;-66
2023/02/23 14:32:13;;;;;;;14.23;7.90;;;;;;;;;;5031955;28;20069;-66
2023/02/23 14:34:49;;;;;;;14.45;7.22;;;;;;;;;;5028339;28;20413;-66
2023/02/23 14:37:25;;;;;;;15.02;8.18;;;;;;;;;;5030303;28;20100;-66
2023/02/23 14:39:51;;;;;;;13.65;7.68;;;;;;;;;;5032692;28;20032;-66
2023/02/23 14:42:16;;;;;;;;;;;;;;;;;;5032685;28;20385;-65
2023/02/23 14:44:44;;;;;;;20.40;9.63;;;;;;;;;;5028575;28;20281;-66
2023/02/23 14:47:14;;;;;;;16.83;8.00;;;;;;;;;;5031538;28;20028;-66
2023/02/23 14:49:44;;;;;;;15.68;7.75;;;;;;;;;;5038253;28;20087;-65
2023/02/23 14:52:20;;;;;;;13.98;7.45;;;;;;;;;;5038679;28;20485;-66
2023/02/23 14:54:46;;;;;;;15.38;7.32;;;;;;;;;;5028111;28;20091;-66
2023/02/23 14:57:19;;;;;;;15.50;7.90;;;;;;;;;;5029498;28;20022;-66
2023/02/23 14:59:45;;;;;;;15.35;7.75;;;;;;;;;;5025331;28;20029;-66
2023/02/23 15:02:21;;;;;;;15.45;8.80;;;;;;;;;;5031791;28;20428;-66
2023/02/23 15:04:47;;;;;;;16.23;8.75;;;;;;;;;;5030802;28;20034;-66
2023/02/23 15:07:22;;;;;;;19.87;9.40;;;;;;;;;;5031114;28;20014;-66
2023/02/23 15:09:48;;;;;;;17.35;9.85;;;;;;;;;;5030037;28;20025;-66
2023/02/23 15:12:15;;;;;;;21.15;10.77;;;;;;;;;;5029702;28;20034;-65
2023/02/23 15:14:41;;;;;;;21.55;11.48;;;;;;;;;;5031462;28;20028;-66
2023/02/23 15:17:11;;;;;;;21.90;12.13;;;;;;;;;;5031607;28;20021;-66
2023/02/23 15:19:38;;;;;;;23.35;13.27;;;;;;;;;;5031084;28;20389;-66
2023/02/23 15:22:04;;;;;;;22.45;12.98;;;;;;;;;;5029079;28;20037;-67
2023/02/23 15:24:40;;;;;;;24.27;13.30;;;;;;;;;;5029665;28;20108;-67
2023/02/23 15:27:12;;;;;;;24.08;14.30;;;;;;;;;;5030168;28;20361;-67
2023/02/23 15:29:38;;;;;;;21.25;12.13;;;;;;;;;;5030834;28;20045;-66
2023/02/23 15:32:35;;;;;;;22.77;13.70;;;;;;;;;;5030533;28;20106;-68
2023/02/23 15:35:03;;;;;;;22.95;12.57;;;;;;;;;;5017870;28;20036;-68
2023/02/23 15:37:32;;;;;;;24.05;13.13;;;;;;;;;;5028802;28;20377;-68
2023/02/23 15:40:04;;;;;;;25.88;13.27;;;;;;;;;;5030375;28;20013;-68
2023/02/23 15:42:37;;;;;;;28.25;15.27;;;;;;;;;;5030565;28;20021;-68
2023/02/23 15:45:12;;;;;;;26.98;13.57;;;;;;;;;;5030352;28;20061;-68
2023/02/23 15:47:37;;;;;;;26.25;13.43;;;;;;;;;;5030853;28;20029;-67
2023/02/23 15:50:23;;;;;;;24.10;12.93;;;;;;;;;;5030835;28;20017;-67
2023/02/23 15:52:52;;;;;;;25.92;13.25;;;;;;;;;;5031531;28;20441;-68
2023/02/23 15:55:25;;;;;;;23.98;12.15;;;;;;;;;;5031710;28;20037;-66